createdAt,value
2019-05-28T00:00:06.513Z,0
2019-05-28T00:01:01.749Z,0
2019-05-28T00:01:51.475Z,0
2019-05-28T00:02:51.442Z,0
2019-05-28T00:03:51.447Z,0
2019-05-28T00:04:51.427Z,0
2019-05-28T00:05:51.729Z,0
2019-05-28T00:06:51.493Z,0
2019-05-28T00:07:51.512Z,0
2019-05-28T00:08:51.497Z,0
2019-05-28T00:09:51.439Z,0
2019-05-28T00:10:51.468Z,0
2019-05-28T00:11:51.500Z,0
2019-05-28T00:12:51.566Z,0
2019-05-28T00:13:51.506Z,0
2019-05-28T00:14:51.476Z,0
2019-05-28T00:15:51.481Z,0
2019-05-28T00:16:51.473Z,0
2019-05-28T00:17:54.687Z,0
2019-05-28T00:18:51.503Z,0
2019-05-28T00:19:51.491Z,0
2019-05-28T00:20:51.560Z,0
2019-05-28T00:21:51.461Z,0
2019-05-28T00:22:51.869Z,0
2019-05-28T00:23:51.544Z,0
2019-05-28T00:24:51.513Z,0
2019-05-28T00:25:51.472Z,0
2019-05-28T00:26:51.457Z,0
2019-05-28T00:27:51.544Z,0
2019-05-28T00:28:51.827Z,0
2019-05-28T00:29:51.533Z,0
2019-05-28T00:31:00.639Z,0
2019-05-28T00:31:51.476Z,0
2019-05-28T00:32:51.468Z,0
2019-05-28T00:33:51.452Z,0
2019-05-28T00:34:51.518Z,0
2019-05-28T00:35:51.463Z,0
2019-05-28T00:36:51.489Z,0
2019-05-28T00:37:51.644Z,0
2019-05-28T00:38:51.483Z,0
2019-05-28T00:39:51.518Z,0
2019-05-28T00:40:52.045Z,0
2019-05-28T00:41:51.483Z,0
2019-05-28T00:42:51.529Z,0
2019-05-28T00:43:51.476Z,0
2019-05-28T00:44:51.524Z,0
2019-05-28T00:45:51.547Z,0
2019-05-28T00:46:51.841Z,0
2019-05-28T00:47:51.599Z,0
2019-05-28T00:48:51.531Z,0
2019-05-28T00:49:54.887Z,0
2019-05-28T00:50:51.557Z,0
2019-05-28T00:51:51.874Z,0
2019-05-28T00:52:51.572Z,0
2019-05-28T00:53:51.585Z,0
2019-05-28T00:54:51.608Z,0
2019-05-28T00:55:51.572Z,0
2019-05-28T00:56:51.776Z,0
2019-05-28T00:57:51.550Z,0
2019-05-28T00:58:51.592Z,0
2019-05-28T00:59:51.564Z,0
2019-05-28T01:01:00.594Z,0
2019-05-28T01:01:51.573Z,0
2019-05-28T01:02:51.555Z,0
2019-05-28T01:03:51.525Z,0
2019-05-28T01:04:51.883Z,0
2019-05-28T01:05:51.580Z,0
2019-05-28T01:06:52.225Z,0
2019-05-28T01:07:51.715Z,0
2019-05-28T01:08:51.553Z,0
2019-05-28T01:09:52.007Z,0
2019-05-28T01:10:51.572Z,0
2019-05-28T01:11:51.570Z,0
2019-05-28T01:12:51.575Z,0
2019-05-28T01:13:51.534Z,0
2019-05-28T01:14:51.676Z,0
2019-05-28T01:15:52.005Z,0
2019-05-28T01:16:51.648Z,0
2019-05-28T01:17:51.610Z,0
2019-05-28T01:18:51.578Z,0
2019-05-28T01:19:51.567Z,0
2019-05-28T01:20:51.569Z,0
2019-05-28T01:21:51.598Z,0
2019-05-28T01:22:51.623Z,0
2019-05-28T01:23:51.593Z,0
2019-05-28T01:24:51.553Z,0
2019-05-28T01:25:51.630Z,0
2019-05-28T01:26:51.611Z,0
2019-05-28T01:27:51.599Z,0
2019-05-28T01:28:51.715Z,0
2019-05-28T01:29:51.609Z,0
2019-05-28T01:31:05.828Z,0
2019-05-28T01:31:51.552Z,0
2019-05-28T01:32:51.653Z,0
2019-05-28T01:33:51.912Z,0
2019-05-28T01:34:51.672Z,0
2019-05-28T01:35:51.628Z,0
2019-05-28T01:36:51.678Z,0
2019-05-28T01:37:51.602Z,0
2019-05-28T01:38:51.589Z,0
2019-05-28T01:39:51.639Z,0
2019-05-28T01:40:51.626Z,0
2019-05-28T01:41:51.698Z,0
2019-05-28T01:42:51.653Z,0
2019-05-28T01:43:51.651Z,0
2019-05-28T01:44:51.607Z,0
2019-05-28T01:45:51.622Z,0
2019-05-28T01:46:51.568Z,0
2019-05-28T01:47:51.646Z,0
2019-05-28T01:48:51.600Z,0
2019-05-28T01:49:51.669Z,0
2019-05-28T01:50:51.688Z,0
2019-05-28T01:51:52.042Z,0
2019-05-28T01:52:51.664Z,0
2019-05-28T01:53:51.667Z,0
2019-05-28T01:54:52.004Z,0
2019-05-28T01:55:51.624Z,0
2019-05-28T01:56:51.645Z,0
2019-05-28T01:57:52.023Z,0
2019-05-28T01:58:51.638Z,0
2019-05-28T01:59:51.627Z,0
2019-05-28T02:01:12.505Z,0
2019-05-28T02:01:51.659Z,0
2019-05-28T02:02:51.944Z,0
2019-05-28T02:03:51.691Z,0
2019-05-28T02:04:51.967Z,0
2019-05-28T02:05:51.709Z,0
2019-05-28T02:06:51.749Z,0
2019-05-28T02:07:51.715Z,0
2019-05-28T02:08:51.684Z,0
2019-05-28T02:09:51.626Z,0
2019-05-28T02:10:51.678Z,0
2019-05-28T02:11:51.639Z,0
2019-05-28T02:12:51.729Z,0
2019-05-28T02:13:51.735Z,0
2019-05-28T02:14:51.658Z,0
2019-05-28T02:15:52.011Z,0
2019-05-28T02:16:51.673Z,0
2019-05-28T02:17:51.663Z,0
2019-05-28T02:18:51.685Z,0
2019-05-28T02:19:51.632Z,0
2019-05-28T02:20:51.762Z,0
2019-05-28T02:21:51.644Z,0
2019-05-28T02:22:51.692Z,0
2019-05-28T02:23:51.678Z,0
2019-05-28T02:24:51.732Z,0
2019-05-28T02:25:51.768Z,0
2019-05-28T02:26:51.740Z,0
2019-05-28T02:27:52.191Z,0
2019-05-28T02:28:51.678Z,0
2019-05-28T02:29:51.695Z,0
2019-05-28T02:31:01.342Z,0
2019-05-28T02:31:51.802Z,0
2019-05-28T02:32:51.763Z,0
2019-05-28T02:33:51.685Z,0
2019-05-28T02:34:51.754Z,0
2019-05-28T02:35:51.796Z,0
2019-05-28T02:36:51.730Z,0
2019-05-28T02:37:51.712Z,0
2019-05-28T02:38:51.739Z,0
2019-05-28T02:39:52.131Z,0
2019-05-28T02:40:51.718Z,0
2019-05-28T02:41:51.743Z,0
2019-05-28T02:42:51.725Z,0
2019-05-28T02:43:51.756Z,0
2019-05-28T02:44:51.760Z,0
2019-05-28T02:45:52.032Z,0
2019-05-28T02:46:51.730Z,0
2019-05-28T02:47:51.716Z,0
2019-05-28T02:48:51.702Z,0
2019-05-28T02:49:51.844Z,0
2019-05-28T02:50:51.695Z,0
2019-05-28T02:51:52.032Z,0
2019-05-28T02:52:51.714Z,0
2019-05-28T02:53:51.721Z,0
2019-05-28T02:54:51.730Z,0
2019-05-28T02:55:51.713Z,0
2019-05-28T02:56:51.720Z,0
2019-05-28T02:57:52.146Z,0
2019-05-28T02:58:51.728Z,0
2019-05-28T02:59:51.754Z,0
2019-05-28T03:00:51.747Z,0
2019-05-28T03:01:53.001Z,0
2019-05-28T03:02:51.697Z,0
2019-05-28T03:03:51.778Z,0
2019-05-28T03:04:51.721Z,0
2019-05-28T03:05:51.689Z,4
2019-05-28T03:06:51.818Z,0
2019-05-28T03:07:54.999Z,0
2019-05-28T03:08:51.773Z,4
2019-05-28T03:09:51.799Z,0
2019-05-28T03:11:11.343Z,4
2019-05-28T03:11:51.830Z,4
2019-05-28T03:12:52.031Z,4
2019-05-28T03:13:51.741Z,4
2019-05-28T03:14:51.770Z,0
2019-05-28T03:15:52.074Z,0
2019-05-28T03:16:51.808Z,0
2019-05-28T03:17:51.789Z,0
2019-05-28T03:18:51.780Z,0
2019-05-28T03:19:51.763Z,0
2019-05-28T03:20:51.752Z,0
2019-05-28T03:21:52.058Z,4
2019-05-28T03:22:51.789Z,0
2019-05-28T03:23:51.776Z,4
2019-05-28T03:24:51.752Z,4
2019-05-28T03:25:51.786Z,4
2019-05-28T03:26:51.957Z,4
2019-05-28T03:27:51.837Z,4
2019-05-28T03:28:51.788Z,8
2019-05-28T03:29:51.768Z,8
2019-05-28T03:30:51.773Z,8
2019-05-28T03:32:14.727Z,8
2019-05-28T03:32:51.897Z,8
2019-05-28T03:33:52.149Z,8
2019-05-28T03:34:51.724Z,8
2019-05-28T03:35:51.895Z,8
2019-05-28T03:36:51.801Z,8
2019-05-28T03:37:51.888Z,8
2019-05-28T03:38:51.851Z,8
2019-05-28T03:39:52.198Z,8
2019-05-28T03:40:51.761Z,8
2019-05-28T03:41:51.832Z,12
2019-05-28T03:42:51.883Z,12
2019-05-28T03:43:51.784Z,16
2019-05-28T03:44:51.796Z,16
2019-05-28T03:45:52.145Z,16
2019-05-28T03:46:51.824Z,16
2019-05-28T03:47:51.848Z,16
2019-05-28T03:48:51.796Z,16
2019-05-28T03:49:51.787Z,20
2019-05-28T03:50:51.848Z,16
2019-05-28T03:51:51.880Z,20
2019-05-28T03:52:51.885Z,20
2019-05-28T03:53:51.898Z,20
2019-05-28T03:54:51.859Z,24
2019-05-28T03:55:51.859Z,24
2019-05-28T03:56:51.928Z,24
2019-05-28T03:57:51.833Z,28
2019-05-28T03:58:51.803Z,28
2019-05-28T03:59:51.948Z,32
2019-05-28T04:00:51.857Z,36
2019-05-28T04:01:52.012Z,36
2019-05-28T04:02:51.827Z,36
2019-05-28T04:03:51.821Z,40
2019-05-28T04:04:51.844Z,48
2019-05-28T04:05:51.877Z,52
2019-05-28T04:06:51.833Z,52
2019-05-28T04:07:51.924Z,56
2019-05-28T04:08:52.151Z,56
2019-05-28T04:09:51.860Z,60
2019-05-28T04:10:51.824Z,60
2019-05-28T04:11:53.120Z,64
2019-05-28T04:12:51.892Z,68
2019-05-28T04:13:51.969Z,60
2019-05-28T04:14:51.808Z,60
2019-05-28T04:15:51.853Z,64
2019-05-28T04:16:51.879Z,60
2019-05-28T04:17:51.911Z,60
2019-05-28T04:18:51.852Z,64
2019-05-28T04:19:52.086Z,76
2019-05-28T04:20:51.903Z,84
2019-05-28T04:21:51.870Z,80
2019-05-28T04:22:51.903Z,80
2019-05-28T04:23:51.829Z,80
2019-05-28T04:24:51.894Z,72
2019-05-28T04:25:51.884Z,68
2019-05-28T04:26:51.866Z,60
2019-05-28T04:27:51.937Z,52
2019-05-28T04:28:51.895Z,44
2019-05-28T04:29:51.889Z,44
2019-05-28T04:30:51.866Z,36
2019-05-28T04:31:52.035Z,36
2019-05-28T04:32:51.961Z,36
2019-05-28T04:33:51.914Z,44
2019-05-28T04:34:51.892Z,48
2019-05-28T04:35:51.865Z,44
2019-05-28T04:36:51.866Z,48
2019-05-28T04:37:51.914Z,48
2019-05-28T04:38:51.898Z,48
2019-05-28T04:39:51.932Z,44
2019-05-28T04:40:51.912Z,40
2019-05-28T04:41:51.856Z,40
2019-05-28T04:42:52.007Z,40
2019-05-28T04:43:51.975Z,36
2019-05-28T04:44:52.266Z,40
2019-05-28T04:45:51.934Z,44
2019-05-28T04:46:52.096Z,44
2019-05-28T04:47:51.963Z,48
2019-05-28T04:48:52.026Z,60
2019-05-28T04:49:51.912Z,72
2019-05-28T04:50:52.267Z,72
2019-05-28T04:51:51.910Z,76
2019-05-28T04:52:51.892Z,80
2019-05-28T04:53:51.927Z,92
2019-05-28T04:54:51.888Z,96
2019-05-28T04:55:51.929Z,92
2019-05-28T04:56:52.283Z,84
2019-05-28T04:57:51.946Z,72
2019-05-28T04:58:51.979Z,72
2019-05-28T04:59:51.914Z,68
2019-05-28T05:00:51.919Z,68
2019-05-28T05:01:51.910Z,68
2019-05-28T05:03:06.956Z,68
2019-05-28T05:03:51.906Z,68
2019-05-28T05:04:51.960Z,76
2019-05-28T05:05:51.962Z,76
2019-05-28T05:06:51.929Z,80
2019-05-28T05:07:52.002Z,76
2019-05-28T05:08:51.939Z,80
2019-05-28T05:09:51.950Z,80
2019-05-28T05:10:52.030Z,84
2019-05-28T05:11:51.979Z,92
2019-05-28T05:12:51.980Z,100
2019-05-28T05:13:51.963Z,100
2019-05-28T05:14:52.045Z,108
2019-05-28T05:15:54.894Z,128
2019-05-28T05:16:51.979Z,132
2019-05-28T05:17:52.020Z,136
2019-05-28T05:18:51.940Z,148
2019-05-28T05:19:52.311Z,164
2019-05-28T05:20:51.963Z,172
2019-05-28T05:21:51.946Z,188
2019-05-28T05:22:51.992Z,192
2019-05-28T05:23:52.036Z,188
2019-05-28T05:24:52.116Z,176
2019-05-28T05:25:52.360Z,172
2019-05-28T05:26:55.642Z,176
2019-05-28T05:27:52.056Z,176
2019-05-28T05:28:51.964Z,176
2019-05-28T05:29:51.950Z,176
2019-05-28T05:30:52.022Z,180
2019-05-28T05:31:52.019Z,184
2019-05-28T05:32:51.959Z,188
2019-05-28T05:33:52.042Z,188
2019-05-28T05:34:52.040Z,196
2019-05-28T05:35:52.006Z,220
2019-05-28T05:36:52.007Z,224
2019-05-28T05:37:52.336Z,228
2019-05-28T05:38:52.103Z,232
2019-05-28T05:39:54.386Z,240
2019-05-28T05:40:51.957Z,252
2019-05-28T05:41:52.041Z,260
2019-05-28T05:42:52.006Z,256
2019-05-28T05:43:51.996Z,248
2019-05-28T05:44:52.388Z,236
2019-05-28T05:45:52.050Z,240
2019-05-28T05:46:52.076Z,244
2019-05-28T05:47:52.020Z,232
2019-05-28T05:48:52.031Z,228
2019-05-28T05:49:52.196Z,224
2019-05-28T05:50:53.253Z,224
2019-05-28T05:51:52.039Z,224
2019-05-28T05:52:51.975Z,220
2019-05-28T05:53:52.036Z,224
2019-05-28T05:54:52.071Z,228
2019-05-28T05:56:10.382Z,228
2019-05-28T05:56:52.106Z,224
2019-05-28T05:57:52.045Z,228
2019-05-28T05:58:52.055Z,228
2019-05-28T05:59:52.163Z,232
2019-05-28T06:00:52.106Z,228
2019-05-28T06:01:52.273Z,224
2019-05-28T06:02:52.100Z,220
2019-05-28T06:03:52.104Z,212
2019-05-28T06:04:52.078Z,208
2019-05-28T06:05:52.151Z,208
2019-05-28T06:06:52.130Z,208
2019-05-28T06:07:53.774Z,204
2019-05-28T06:08:52.073Z,200
2019-05-28T06:09:52.093Z,196
2019-05-28T06:10:52.080Z,196
2019-05-28T06:11:52.065Z,196
2019-05-28T06:12:52.047Z,196
2019-05-28T06:13:52.493Z,200
2019-05-28T06:14:52.406Z,204
2019-05-28T06:15:52.002Z,204
2019-05-28T06:16:52.133Z,208
2019-05-28T06:17:53.342Z,212
2019-05-28T06:18:52.242Z,220
2019-05-28T06:19:52.329Z,228
2019-05-28T06:21:06.985Z,236
2019-05-28T06:21:52.026Z,244
2019-05-28T06:22:52.028Z,256
2019-05-28T06:23:52.242Z,268
2019-05-28T06:24:52.059Z,276
2019-05-28T06:25:52.255Z,288
2019-05-28T06:26:52.098Z,296
2019-05-28T06:27:52.099Z,308
2019-05-28T06:28:52.087Z,316
2019-05-28T06:29:52.215Z,328
2019-05-28T06:30:52.166Z,336
2019-05-28T06:31:52.640Z,344
2019-05-28T06:32:52.087Z,360
2019-05-28T06:34:04.460Z,372
2019-05-28T06:34:52.075Z,376
2019-05-28T06:35:52.160Z,392
2019-05-28T06:36:52.164Z,400
2019-05-28T06:37:52.471Z,416
2019-05-28T06:38:52.154Z,424
2019-05-28T06:39:52.123Z,428
2019-05-28T06:40:52.189Z,428
2019-05-28T06:41:52.055Z,432
2019-05-28T06:42:52.080Z,440
2019-05-28T06:43:52.154Z,444
2019-05-28T06:44:52.309Z,444
2019-05-28T06:45:52.126Z,452
2019-05-28T06:46:52.086Z,444
2019-05-28T06:47:53.590Z,424
2019-05-28T06:48:52.161Z,404
2019-05-28T06:49:52.168Z,384
2019-05-28T06:50:52.134Z,368
2019-05-28T06:51:52.179Z,356
2019-05-28T06:52:52.216Z,348
2019-05-28T06:53:52.076Z,364
2019-05-28T06:54:52.266Z,356
2019-05-28T06:55:52.109Z,352
2019-05-28T06:56:52.156Z,352
2019-05-28T06:57:52.100Z,348
2019-05-28T06:58:52.112Z,360
2019-05-28T06:59:52.090Z,384
2019-05-28T07:00:52.291Z,412
2019-05-28T07:01:53.552Z,436
2019-05-28T07:02:52.391Z,428
2019-05-28T07:03:52.171Z,436
2019-05-28T07:04:52.388Z,464
2019-05-28T07:06:08.778Z,456
2019-05-28T07:06:52.153Z,452
2019-05-28T07:07:52.208Z,444
2019-05-28T07:08:52.191Z,412
2019-05-28T07:09:52.198Z,380
2019-05-28T07:11:05.551Z,352
2019-05-28T07:11:52.121Z,332
2019-05-28T07:12:52.175Z,320
2019-05-28T07:13:52.666Z,320
2019-05-28T07:14:52.341Z,328
2019-05-28T07:15:52.170Z,336
2019-05-28T07:17:01.381Z,340
2019-05-28T07:17:53.452Z,332
2019-05-28T07:18:52.235Z,320
2019-05-28T07:19:52.135Z,316
2019-05-28T07:20:52.224Z,316
2019-05-28T07:21:52.206Z,320
2019-05-28T07:22:52.235Z,316
2019-05-28T07:23:52.164Z,312
2019-05-28T07:24:52.149Z,308
2019-05-28T07:25:52.209Z,300
2019-05-28T07:26:52.229Z,300
2019-05-28T07:28:09.418Z,300
2019-05-28T07:28:52.196Z,300
2019-05-28T07:29:52.223Z,296
2019-05-28T07:30:52.280Z,292
2019-05-28T07:31:52.213Z,296
2019-05-28T07:32:52.301Z,300
2019-05-28T07:33:52.217Z,300
2019-05-28T07:34:52.264Z,304
2019-05-28T07:35:54.155Z,308
2019-05-28T07:36:52.201Z,308
2019-05-28T07:37:52.565Z,312
2019-05-28T07:38:52.254Z,316
2019-05-28T07:39:52.223Z,320
2019-05-28T07:40:52.314Z,324
2019-05-28T07:41:52.278Z,328
2019-05-28T07:42:52.277Z,332
2019-05-28T07:43:52.548Z,340
2019-05-28T07:44:52.229Z,348
2019-05-28T07:45:52.239Z,356
2019-05-28T07:46:52.261Z,356
2019-05-28T07:47:52.189Z,356
2019-05-28T07:48:52.358Z,348
2019-05-28T07:49:52.732Z,340
2019-05-28T07:50:52.255Z,336
2019-05-28T07:51:52.316Z,332
2019-05-28T07:52:52.341Z,324
2019-05-28T07:53:52.266Z,320
2019-05-28T07:54:52.236Z,316
2019-05-28T07:55:53.676Z,304
2019-05-28T07:56:52.249Z,300
2019-05-28T07:57:52.278Z,296
2019-05-28T07:58:52.258Z,292
2019-05-28T07:59:52.309Z,292
2019-05-28T08:00:52.234Z,292
2019-05-28T08:01:52.925Z,300
2019-05-28T08:02:52.243Z,300
2019-05-28T08:03:52.257Z,308
2019-05-28T08:04:55.642Z,316
2019-05-28T08:05:52.275Z,316
2019-05-28T08:07:02.621Z,324
2019-05-28T08:07:52.362Z,328
2019-05-28T08:08:52.288Z,332
2019-05-28T08:09:52.235Z,336
2019-05-28T08:10:52.214Z,336
2019-05-28T08:11:52.282Z,340
2019-05-28T08:12:52.289Z,340
2019-05-28T08:13:55.429Z,340
2019-05-28T08:14:52.264Z,344
2019-05-28T08:15:52.313Z,340
2019-05-28T08:17:00.401Z,340
2019-05-28T08:17:53.632Z,340
2019-05-28T08:18:52.256Z,336
2019-05-28T08:19:52.251Z,336
2019-05-28T08:20:52.263Z,332
2019-05-28T08:21:52.411Z,332
2019-05-28T08:22:52.422Z,324
2019-05-28T08:23:52.262Z,320
2019-05-28T08:24:54.880Z,320
2019-05-28T08:25:55.791Z,320
2019-05-28T08:26:52.277Z,324
2019-05-28T08:27:52.437Z,324
2019-05-28T08:28:52.252Z,332
2019-05-28T08:29:53.832Z,340
2019-05-28T08:30:52.246Z,352
2019-05-28T08:31:52.350Z,364
2019-05-28T08:32:52.297Z,376
2019-05-28T08:33:52.263Z,392
2019-05-28T08:35:09.348Z,408
2019-05-28T08:35:54.388Z,420
2019-05-28T08:37:10.303Z,436
2019-05-28T08:37:53.672Z,444
2019-05-28T08:38:52.277Z,452
2019-05-28T08:39:52.282Z,456
2019-05-28T08:40:52.349Z,460
2019-05-28T08:41:52.336Z,460
2019-05-28T08:42:52.562Z,448
2019-05-28T08:43:52.707Z,436
2019-05-28T08:44:52.418Z,424
2019-05-28T08:45:52.383Z,416
2019-05-28T08:46:52.553Z,408
2019-05-28T08:47:52.400Z,408
2019-05-28T08:48:52.789Z,404
2019-05-28T08:49:52.408Z,400
2019-05-28T08:50:52.410Z,404
2019-05-28T08:51:52.373Z,420
2019-05-28T08:52:52.373Z,452
2019-05-28T08:53:52.331Z,500
2019-05-28T08:54:55.738Z,536
2019-05-28T08:55:52.341Z,576
2019-05-28T08:56:52.393Z,620
2019-05-28T08:57:52.299Z,680
2019-05-28T08:58:52.324Z,724
2019-05-28T08:59:52.354Z,796
2019-05-28T09:00:52.401Z,864
2019-05-28T09:01:57.054Z,876
2019-05-28T09:02:52.816Z,852
2019-05-28T09:03:53.035Z,828
2019-05-28T09:04:52.528Z,820
2019-05-28T09:05:52.339Z,796
2019-05-28T09:06:52.403Z,752
2019-05-28T09:07:52.359Z,724
2019-05-28T09:08:52.351Z,668
2019-05-28T09:09:52.413Z,644
2019-05-28T09:10:52.367Z,620
2019-05-28T09:11:52.425Z,596
2019-05-28T09:12:53.069Z,588
2019-05-28T09:13:52.815Z,588
2019-05-28T09:15:04.023Z,596
2019-05-28T09:15:52.373Z,616
2019-05-28T09:16:52.460Z,644
2019-05-28T09:17:52.414Z,648
2019-05-28T09:18:52.889Z,672
2019-05-28T09:19:52.389Z,676
2019-05-28T09:20:52.729Z,660
2019-05-28T09:21:52.434Z,648
2019-05-28T09:22:52.475Z,644
2019-05-28T09:23:52.427Z,648
2019-05-28T09:24:52.371Z,652
2019-05-28T09:25:52.403Z,652
2019-05-28T09:26:52.423Z,660
2019-05-28T09:27:52.498Z,664
2019-05-28T09:28:52.718Z,672
2019-05-28T09:29:55.235Z,680
2019-05-28T09:30:52.671Z,692
2019-05-28T09:31:56.204Z,696
2019-05-28T09:32:52.997Z,704
2019-05-28T09:33:52.402Z,712
2019-05-28T09:34:52.413Z,720
2019-05-28T09:36:14.874Z,736
2019-05-28T09:36:52.446Z,748
2019-05-28T09:37:52.417Z,768
2019-05-28T09:38:52.415Z,752
2019-05-28T09:39:52.693Z,744
2019-05-28T09:40:58.532Z,752
2019-05-28T09:41:52.563Z,744
2019-05-28T09:42:52.483Z,740
2019-05-28T09:43:52.518Z,752
2019-05-28T09:44:52.646Z,748
2019-05-28T09:45:52.441Z,752
2019-05-28T09:46:52.469Z,764
2019-05-28T09:47:55.109Z,764
2019-05-28T09:48:52.495Z,748
2019-05-28T09:49:56.041Z,752
2019-05-28T09:50:54.541Z,764
2019-05-28T09:51:52.689Z,768
2019-05-28T09:53:03.120Z,788
2019-05-28T09:53:53.048Z,784
2019-05-28T09:54:52.542Z,776
2019-05-28T09:55:52.983Z,776
2019-05-28T09:56:52.867Z,792
2019-05-28T09:57:55.883Z,816
2019-05-28T09:58:52.447Z,832
2019-05-28T09:59:52.816Z,836
2019-05-28T10:01:06.024Z,972
2019-05-28T10:02:01.002Z,956
2019-05-28T10:02:52.513Z,1048
2019-05-28T10:03:52.410Z,1032
2019-05-28T10:04:57.760Z,948
2019-05-28T10:06:34.481Z,940
2019-05-28T10:06:52.498Z,932
2019-05-28T10:07:52.435Z,924
2019-05-28T10:08:52.584Z,900
2019-05-28T10:09:52.583Z,856
2019-05-28T10:10:52.454Z,800
2019-05-28T10:11:52.891Z,772
2019-05-28T10:12:52.477Z,748
2019-05-28T10:13:52.499Z,736
2019-05-28T10:14:52.539Z,724
2019-05-28T10:15:52.993Z,736
2019-05-28T10:16:52.515Z,744
2019-05-28T10:17:56.190Z,716
2019-05-28T10:18:52.536Z,692
2019-05-28T10:19:52.539Z,668
2019-05-28T10:20:52.487Z,684
2019-05-28T10:21:52.449Z,656
2019-05-28T10:22:52.535Z,592
2019-05-28T10:23:52.929Z,552
2019-05-28T10:24:52.573Z,520
2019-05-28T10:25:52.556Z,496
2019-05-28T10:26:52.503Z,476
2019-05-28T10:28:07.915Z,448
2019-05-28T10:28:55.992Z,436
2019-05-28T10:29:53.101Z,424
2019-05-28T10:30:52.507Z,412
2019-05-28T10:32:00.604Z,396
2019-05-28T10:32:52.521Z,384
2019-05-28T10:33:52.631Z,364
2019-05-28T10:35:10.982Z,344
2019-05-28T10:35:52.517Z,340
2019-05-28T10:36:52.622Z,344
2019-05-28T10:37:52.616Z,356
2019-05-28T10:38:52.450Z,380
2019-05-28T10:39:52.499Z,408
2019-05-28T10:40:52.543Z,448
2019-05-28T10:41:53.253Z,488
2019-05-28T10:42:52.600Z,528
2019-05-28T10:43:52.629Z,556
2019-05-28T10:44:53.168Z,584
2019-05-28T10:45:53.872Z,608
2019-05-28T10:46:52.718Z,628
2019-05-28T10:47:53.714Z,652
2019-05-28T10:48:53.112Z,684
2019-05-28T10:49:56.196Z,628
2019-05-28T10:50:52.537Z,632
2019-05-28T10:51:52.578Z,628
2019-05-28T10:52:52.977Z,612
2019-05-28T10:53:52.575Z,588
2019-05-28T10:54:52.566Z,568
2019-05-28T10:55:52.549Z,552
2019-05-28T10:56:52.602Z,552
2019-05-28T10:57:52.534Z,560
2019-05-28T10:58:52.503Z,568
2019-05-28T10:59:52.511Z,572
2019-05-28T11:00:52.707Z,580
2019-05-28T11:02:05.137Z,604
2019-05-28T11:02:53.054Z,668
2019-05-28T11:03:55.117Z,752
2019-05-28T11:04:53.612Z,632
2019-05-28T11:05:52.797Z,640
2019-05-28T11:06:59.921Z,632
2019-05-28T11:07:52.598Z,632
2019-05-28T11:08:52.604Z,640
2019-05-28T11:09:52.655Z,676
2019-05-28T11:10:52.678Z,744
2019-05-28T11:11:52.584Z,736
2019-05-28T11:12:52.628Z,868
2019-05-28T11:14:00.981Z,768
2019-05-28T11:14:52.539Z,756
2019-05-28T11:15:52.578Z,724
2019-05-28T11:16:52.611Z,684
2019-05-28T11:17:54.176Z,616
2019-05-28T11:18:52.610Z,536
2019-05-28T11:19:52.618Z,460
2019-05-28T11:20:52.583Z,380
2019-05-28T11:21:52.565Z,312
2019-05-28T11:22:52.575Z,260
2019-05-28T11:23:52.986Z,228
2019-05-28T11:24:52.627Z,196
2019-05-28T11:25:52.559Z,164
2019-05-28T11:26:52.602Z,136
2019-05-28T11:27:52.604Z,124
2019-05-28T11:28:52.591Z,116
2019-05-28T11:29:52.684Z,120
2019-05-28T11:30:52.607Z,116
2019-05-28T11:32:06.154Z,140
2019-05-28T11:32:54.321Z,160
2019-05-28T11:33:52.585Z,192
2019-05-28T11:34:52.601Z,228
2019-05-28T11:35:52.591Z,256
2019-05-28T11:37:08.239Z,272
2019-05-28T11:37:52.649Z,280
2019-05-28T11:38:52.703Z,284
2019-05-28T11:39:52.603Z,288
2019-05-28T11:41:44.058Z,300
2019-05-28T11:41:55.079Z,300
2019-05-28T11:42:55.084Z,312
2019-05-28T11:43:55.007Z,328
2019-05-28T11:44:55.034Z,348
2019-05-28T11:45:55.101Z,372
2019-05-28T11:46:55.067Z,400
2019-05-28T11:47:58.764Z,428
2019-05-28T11:48:55.079Z,448
2019-05-28T11:49:55.129Z,468
2019-05-28T11:50:55.176Z,484
2019-05-28T11:51:55.207Z,492
2019-05-28T11:52:55.512Z,508
2019-05-28T11:53:55.072Z,528
2019-05-28T11:54:55.144Z,536
2019-05-28T11:55:55.047Z,552
2019-05-28T11:56:55.154Z,568
2019-05-28T11:57:55.223Z,588
2019-05-28T11:58:55.080Z,596
2019-05-28T11:59:55.210Z,604
2019-05-28T12:00:55.076Z,600
2019-05-28T12:02:06.370Z,596
2019-05-28T12:02:55.102Z,588
2019-05-28T12:03:55.208Z,584
2019-05-28T12:04:55.112Z,572
2019-05-28T12:05:55.114Z,556
2019-05-28T12:06:55.060Z,540
2019-05-28T12:07:58.732Z,520
2019-05-28T12:08:55.094Z,508
2019-05-28T12:09:55.226Z,496
2019-05-28T12:10:55.204Z,488
2019-05-28T12:11:55.075Z,488
2019-05-28T12:12:55.167Z,492
2019-05-28T12:13:55.226Z,496
2019-05-28T12:14:55.135Z,508
2019-05-28T12:15:55.088Z,520
2019-05-28T12:16:55.576Z,532
2019-05-28T12:17:55.196Z,552
2019-05-28T12:18:58.269Z,576
2019-05-28T12:19:55.240Z,596
2019-05-28T12:20:55.175Z,620
2019-05-28T12:21:55.207Z,636
2019-05-28T12:23:15.318Z,660
2019-05-28T12:23:55.217Z,680
2019-05-28T12:24:55.186Z,696
2019-05-28T12:25:55.130Z,692
2019-05-28T12:26:55.567Z,688
2019-05-28T12:27:55.244Z,676
2019-05-28T12:28:55.147Z,672
2019-05-28T12:29:59.964Z,664
2019-05-28T12:30:55.178Z,656
2019-05-28T12:32:05.926Z,652
2019-05-28T12:32:55.233Z,644
2019-05-28T12:33:55.232Z,644
2019-05-28T12:34:55.644Z,648
2019-05-28T12:35:55.212Z,644
2019-05-28T12:36:55.133Z,652
2019-05-28T12:37:58.198Z,660
2019-05-28T12:38:55.187Z,664
2019-05-28T12:39:55.155Z,672
2019-05-28T12:40:56.943Z,676
2019-05-28T12:42:12.492Z,676
2019-05-28T12:42:55.183Z,676
2019-05-28T12:43:55.345Z,688
2019-05-28T12:45:14.153Z,676
2019-05-28T12:45:55.221Z,672
2019-05-28T12:46:55.489Z,660
2019-05-28T12:48:18.555Z,652
2019-05-28T12:48:55.155Z,652
2019-05-28T12:49:55.221Z,656
2019-05-28T12:50:55.185Z,652
2019-05-28T12:51:55.173Z,636
2019-05-28T12:52:56.000Z,624
2019-05-28T12:53:59.102Z,612
2019-05-28T12:54:55.185Z,596
2019-05-28T12:55:55.203Z,584
2019-05-28T12:56:55.183Z,568
2019-05-28T12:57:55.521Z,556
2019-05-28T12:58:55.604Z,540
2019-05-28T12:59:55.186Z,524
2019-05-28T13:00:55.273Z,512
2019-05-28T13:01:55.176Z,492
2019-05-28T13:02:55.279Z,476
2019-05-28T13:03:59.556Z,460
2019-05-28T13:04:55.473Z,452
2019-05-28T13:05:55.232Z,448
2019-05-28T13:06:55.496Z,436
2019-05-28T13:08:15.930Z,428
2019-05-28T13:08:55.167Z,424
2019-05-28T13:09:57.078Z,416
2019-05-28T13:10:55.172Z,408
2019-05-28T13:11:55.326Z,404
2019-05-28T13:12:55.382Z,400
2019-05-28T13:13:55.235Z,392
2019-05-28T13:14:55.254Z,380
2019-05-28T13:15:55.249Z,368
2019-05-28T13:16:56.622Z,364
2019-05-28T13:17:55.636Z,360
2019-05-28T13:18:55.299Z,360
2019-05-28T13:19:55.278Z,356
2019-05-28T13:20:56.183Z,352
2019-05-28T13:21:55.250Z,352
2019-05-28T13:22:55.619Z,356
2019-05-28T13:23:55.282Z,364
2019-05-28T13:24:55.268Z,372
2019-05-28T13:25:55.211Z,384
2019-05-28T13:26:55.240Z,396
2019-05-28T13:27:55.276Z,408
2019-05-28T13:28:55.220Z,424
2019-05-28T13:29:55.243Z,444
2019-05-28T13:30:55.242Z,456
2019-05-28T13:31:55.294Z,468
2019-05-28T13:32:56.151Z,472
2019-05-28T13:33:55.248Z,480
2019-05-28T13:34:56.087Z,492
2019-05-28T13:35:55.209Z,508
2019-05-28T13:36:55.228Z,516
2019-05-28T13:37:55.666Z,528
2019-05-28T13:38:55.229Z,540
2019-05-28T13:39:55.372Z,556
2019-05-28T13:40:55.257Z,588
2019-05-28T13:41:55.266Z,624
2019-05-28T13:42:55.563Z,652
2019-05-28T13:43:55.294Z,676
2019-05-28T13:44:55.467Z,696
2019-05-28T13:45:55.350Z,736
2019-05-28T13:46:55.817Z,736
2019-05-28T13:47:55.287Z,720
2019-05-28T13:48:55.259Z,700
2019-05-28T13:49:55.258Z,704
2019-05-28T13:50:55.424Z,692
2019-05-28T13:52:14.270Z,692
2019-05-28T13:52:55.646Z,724
2019-05-28T13:53:55.300Z,780
2019-05-28T13:54:55.291Z,820
2019-05-28T13:55:55.255Z,756
2019-05-28T13:56:55.283Z,820
2019-05-28T13:57:55.332Z,844
2019-05-28T13:58:55.697Z,844
2019-05-28T14:00:01.469Z,840
2019-05-28T14:00:55.450Z,816
2019-05-28T14:01:55.291Z,780
2019-05-28T14:02:55.333Z,744
2019-05-28T14:03:55.304Z,708